createdAt,value
2022-12-11T00:00:22.757Z,0.00
2022-12-11T00:01:22.758Z,0.00
2022-12-11T00:02:22.779Z,0.00
2022-12-11T00:03:22.880Z,0.00
2022-12-11T00:04:22.777Z,0.00
2022-12-11T00:05:22.780Z,0.00
2022-12-11T00:06:22.786Z,0.00
2022-12-11T00:07:22.794Z,0.00
2022-12-11T00:08:22.825Z,0.00
2022-12-11T00:09:22.801Z,0.00
2022-12-11T00:10:22.808Z,0.00
2022-12-11T00:11:22.816Z,0.00
2022-12-11T00:12:22.818Z,0.00
2022-12-11T00:13:22.825Z,0.00
2022-12-11T00:14:22.830Z,0.00
2022-12-11T00:15:22.835Z,0.00
2022-12-11T00:16:26.915Z,0.00
2022-12-11T00:17:22.846Z,0.00
2022-12-11T00:18:22.861Z,0.00
2022-12-11T00:19:22.856Z,0.00
2022-12-11T00:20:22.862Z,0.00
2022-12-11T00:21:22.866Z,0.00
2022-12-11T00:22:22.872Z,0.00
2022-12-11T00:23:22.878Z,0.00
2022-12-11T00:24:22.885Z,0.00
2022-12-11T00:25:22.896Z,0.00
2022-12-11T00:26:22.896Z,0.00
2022-12-11T00:27:22.901Z,0.00
2022-12-11T00:28:22.904Z,0.00
2022-12-11T00:29:22.912Z,0.00
2022-12-11T00:30:22.919Z,0.00
2022-12-11T00:31:22.944Z,0.00
2022-12-11T00:32:22.928Z,0.00
2022-12-11T00:33:22.939Z,0.00
2022-12-11T00:34:22.940Z,0.00
2022-12-11T00:35:22.945Z,0.00
2022-12-11T00:36:22.951Z,0.00
2022-12-11T00:37:23.002Z,0.00
2022-12-11T00:38:22.964Z,0.00
2022-12-11T00:39:22.971Z,0.00
2022-12-11T00:40:22.973Z,0.00
2022-12-11T00:41:22.984Z,0.00
2022-12-11T00:42:22.983Z,0.00
2022-12-11T00:43:22.989Z,0.00
2022-12-11T00:44:22.997Z,0.00
2022-12-11T00:45:23.002Z,0.00
2022-12-11T00:46:23.061Z,0.00
2022-12-11T00:47:23.011Z,0.00
2022-12-11T00:48:23.016Z,0.00
2022-12-11T00:49:23.023Z,0.00
2022-12-11T00:50:23.033Z,0.00
2022-12-11T00:51:23.033Z,0.00
2022-12-11T00:52:23.039Z,0.00
2022-12-11T00:53:23.045Z,0.00
2022-12-11T00:54:23.051Z,0.00
2022-12-11T00:55:23.059Z,0.00
2022-12-11T00:56:23.064Z,0.00
2022-12-11T00:57:23.069Z,0.00
2022-12-11T00:58:23.072Z,0.00
2022-12-11T00:59:23.078Z,0.00
2022-12-11T01:00:23.084Z,0.00
2022-12-11T01:01:23.124Z,0.00
2022-12-11T01:02:23.150Z,0.00
2022-12-11T01:03:23.107Z,0.00
2022-12-11T01:04:23.108Z,0.00
2022-12-11T01:05:23.114Z,0.00
2022-12-11T01:06:23.121Z,0.00
2022-12-11T01:07:23.124Z,0.00
2022-12-11T01:08:23.166Z,0.00
2022-12-11T01:09:23.133Z,0.00
2022-12-11T01:10:23.169Z,0.00
2022-12-11T01:11:23.148Z,0.00
2022-12-11T01:12:23.149Z,0.00
2022-12-11T01:13:23.155Z,0.00
2022-12-11T01:14:23.163Z,0.00
2022-12-11T01:15:23.168Z,0.00
2022-12-11T01:16:23.208Z,0.00
2022-12-11T01:17:23.177Z,0.00
2022-12-11T01:18:23.184Z,0.00
2022-12-11T01:19:23.190Z,0.00
2022-12-11T01:20:23.194Z,0.00
2022-12-11T01:21:23.199Z,0.00
2022-12-11T01:22:23.206Z,0.00
2022-12-11T01:23:23.211Z,0.00
2022-12-11T01:24:23.216Z,0.00
2022-12-11T01:25:23.223Z,0.00
2022-12-11T01:26:23.230Z,0.00
2022-12-11T01:27:23.233Z,0.00
2022-12-11T01:28:23.240Z,0.00
2022-12-11T01:29:23.243Z,0.00
2022-12-11T01:30:23.248Z,0.00
2022-12-11T01:31:23.256Z,0.00
2022-12-11T01:32:23.263Z,0.00
2022-12-11T01:33:23.266Z,0.00
2022-12-11T01:34:23.272Z,0.00
2022-12-11T01:35:23.281Z,0.00
2022-12-11T01:36:23.289Z,0.00
2022-12-11T01:37:23.288Z,0.00
2022-12-11T01:38:23.298Z,0.00
2022-12-11T01:39:23.350Z,0.00
2022-12-11T01:40:23.311Z,0.00
2022-12-11T01:41:23.312Z,0.00
2022-12-11T01:42:23.316Z,0.00
2022-12-11T01:43:23.323Z,0.00
2022-12-11T01:44:23.326Z,0.00
2022-12-11T01:45:26.637Z,0.00
2022-12-11T01:46:23.363Z,0.00
2022-12-11T01:47:23.344Z,0.00
2022-12-11T01:48:23.349Z,0.00
2022-12-11T01:49:23.354Z,0.00
2022-12-11T01:50:23.366Z,0.00
2022-12-11T01:51:23.367Z,0.00
2022-12-11T01:52:23.373Z,0.00
2022-12-11T01:53:23.376Z,0.00
2022-12-11T01:54:23.384Z,0.00
2022-12-11T01:55:23.393Z,0.00
2022-12-11T01:56:23.395Z,0.00
2022-12-11T01:57:23.398Z,0.00
2022-12-11T01:58:23.409Z,0.00
2022-12-11T01:59:23.412Z,0.00
2022-12-11T02:00:23.415Z,0.00
2022-12-11T02:01:23.451Z,0.00
2022-12-11T02:02:23.464Z,0.00
2022-12-11T02:03:23.434Z,0.00
2022-12-11T02:04:23.436Z,0.00
2022-12-11T02:05:23.443Z,0.00
2022-12-11T02:06:23.453Z,0.00
2022-12-11T02:07:23.456Z,0.00
2022-12-11T02:08:23.518Z,0.00
2022-12-11T02:09:23.466Z,0.00
2022-12-11T02:10:23.472Z,0.00
2022-12-11T02:11:23.478Z,0.00
2022-12-11T02:12:23.485Z,0.00
2022-12-11T02:13:23.489Z,0.00
2022-12-11T02:14:23.496Z,0.00
2022-12-11T02:15:23.500Z,0.00
2022-12-11T02:16:23.550Z,0.00
2022-12-11T02:17:23.516Z,0.00
2022-12-11T02:18:23.519Z,0.00
2022-12-11T02:19:23.522Z,0.00
2022-12-11T02:20:23.528Z,0.00
2022-12-11T02:21:23.536Z,0.00
2022-12-11T02:22:23.541Z,0.00
2022-12-11T02:23:23.546Z,0.00
2022-12-11T02:24:23.552Z,0.00
2022-12-11T02:25:23.557Z,0.00
2022-12-11T02:26:23.565Z,0.00
2022-12-11T02:27:23.566Z,0.00
2022-12-11T02:28:23.575Z,0.00
2022-12-11T02:29:23.581Z,0.00
2022-12-11T02:30:23.587Z,0.00
2022-12-11T02:31:23.612Z,0.00
2022-12-11T02:32:23.596Z,0.00
2022-12-11T02:33:23.603Z,0.00
2022-12-11T02:34:23.606Z,0.00
2022-12-11T02:35:23.612Z,0.00
2022-12-11T02:36:23.623Z,0.00
2022-12-11T02:37:23.624Z,0.00
2022-12-11T02:38:23.630Z,0.00
2022-12-11T02:39:23.635Z,0.00
2022-12-11T02:40:23.656Z,0.00
2022-12-11T02:41:23.648Z,0.00
2022-12-11T02:42:23.652Z,0.00
2022-12-11T02:43:23.657Z,0.00
2022-12-11T02:44:23.664Z,0.00
2022-12-11T02:45:23.668Z,0.00
2022-12-11T02:46:23.683Z,0.00
2022-12-11T02:47:23.678Z,0.00
2022-12-11T02:48:23.684Z,0.00
2022-12-11T02:49:23.690Z,0.00
2022-12-11T02:50:23.697Z,0.00
2022-12-11T02:51:23.702Z,0.00
2022-12-11T02:52:23.706Z,0.00
2022-12-11T02:53:23.715Z,0.00
2022-12-11T02:54:23.724Z,0.00
2022-12-11T02:55:23.725Z,0.00
2022-12-11T02:56:23.729Z,0.00
2022-12-11T02:57:23.734Z,0.00
2022-12-11T02:58:23.743Z,0.00
2022-12-11T02:59:23.746Z,0.00
2022-12-11T03:00:23.750Z,0.00
2022-12-11T03:01:23.800Z,0.00
2022-12-11T03:02:23.830Z,0.00
2022-12-11T03:03:23.773Z,0.00
2022-12-11T03:04:23.775Z,0.00
2022-12-11T03:05:23.778Z,0.00
2022-12-11T03:06:23.786Z,0.00
2022-12-11T03:07:23.796Z,0.00
2022-12-11T03:08:23.831Z,0.00
2022-12-11T03:09:23.800Z,0.00
2022-12-11T03:10:23.808Z,0.00
2022-12-11T03:11:23.816Z,0.00
2022-12-11T03:12:23.819Z,0.00
2022-12-11T03:13:23.823Z,0.00
2022-12-11T03:14:23.829Z,0.00
2022-12-11T03:15:23.837Z,0.00
2022-12-11T03:16:23.870Z,0.00
2022-12-11T03:17:23.846Z,0.00
2022-12-11T03:18:23.852Z,0.00
2022-12-11T03:19:23.856Z,0.00
2022-12-11T03:20:23.866Z,0.00
2022-12-11T03:21:23.869Z,0.00
2022-12-11T03:22:23.882Z,0.00
2022-12-11T03:23:23.880Z,0.00
2022-12-11T03:24:23.886Z,0.00
2022-12-11T03:25:23.895Z,0.00
2022-12-11T03:26:23.898Z,0.00
2022-12-11T03:27:23.902Z,0.00
2022-12-11T03:28:23.908Z,0.00
2022-12-11T03:29:23.914Z,0.00
2022-12-11T03:30:23.947Z,0.00
2022-12-11T03:31:23.931Z,0.00
2022-12-11T03:32:23.930Z,0.00
2022-12-11T03:33:23.937Z,0.00
2022-12-11T03:34:23.943Z,0.00
2022-12-11T03:35:23.949Z,0.00
2022-12-11T03:36:23.953Z,0.00
2022-12-11T03:37:23.958Z,0.00
2022-12-11T03:38:23.964Z,0.00
2022-12-11T03:39:24.020Z,0.00
2022-12-11T03:40:23.977Z,0.00
2022-12-11T03:41:23.980Z,0.00
2022-12-11T03:42:23.988Z,0.00
2022-12-11T03:43:23.991Z,0.00
2022-12-11T03:44:23.997Z,0.00
2022-12-11T03:45:24.006Z,0.00
2022-12-11T03:46:24.059Z,0.00
2022-12-11T03:47:24.018Z,0.00
2022-12-11T03:48:24.018Z,0.00
2022-12-11T03:49:24.024Z,0.00
2022-12-11T03:50:24.031Z,0.00
2022-12-11T03:51:24.041Z,0.00
2022-12-11T03:52:24.046Z,0.00
2022-12-11T03:53:24.048Z,0.00
2022-12-11T03:54:24.063Z,0.00
2022-12-11T03:55:24.068Z,0.00
2022-12-11T03:56:24.069Z,0.00
2022-12-11T03:57:24.069Z,0.00
2022-12-11T03:58:24.077Z,0.00
2022-12-11T03:59:24.081Z,0.00
2022-12-11T04:00:24.095Z,0.00
2022-12-11T04:01:24.145Z,0.00
2022-12-11T04:02:24.110Z,0.00
2022-12-11T04:03:24.121Z,0.00
2022-12-11T04:04:24.154Z,0.00
2022-12-11T04:05:24.122Z,0.00
2022-12-11T04:06:24.139Z,0.00
2022-12-11T04:07:24.138Z,0.00
2022-12-11T04:08:24.181Z,0.00
2022-12-11T04:09:24.136Z,0.00
2022-12-11T04:10:24.142Z,0.00
2022-12-11T04:11:24.148Z,0.00
2022-12-11T04:12:24.153Z,0.00
2022-12-11T04:13:24.158Z,0.00
2022-12-11T04:14:24.166Z,0.00
2022-12-11T04:15:24.169Z,0.00
2022-12-11T04:16:24.175Z,0.00
2022-12-11T04:17:24.181Z,0.00
2022-12-11T04:18:24.185Z,0.00
2022-12-11T04:19:24.191Z,0.00
2022-12-11T04:20:24.197Z,0.00
2022-12-11T04:21:24.202Z,0.00
2022-12-11T04:22:24.217Z,0.00
2022-12-11T04:23:24.213Z,0.00
2022-12-11T04:24:24.217Z,0.00
2022-12-11T04:25:24.226Z,0.00
2022-12-11T04:26:24.229Z,0.00
2022-12-11T04:27:24.235Z,0.00
2022-12-11T04:28:24.240Z,0.00
2022-12-11T04:29:24.247Z,0.00
2022-12-11T04:30:26.068Z,0.00
2022-12-11T04:31:24.312Z,0.00
2022-12-11T04:32:24.263Z,0.00
2022-12-11T04:33:24.269Z,0.00
2022-12-11T04:34:24.274Z,0.00
2022-12-11T04:35:24.278Z,0.00
2022-12-11T04:36:24.283Z,0.00
2022-12-11T04:37:24.289Z,0.00
2022-12-11T04:38:24.298Z,0.00
2022-12-11T04:39:24.300Z,0.00
2022-12-11T04:40:24.307Z,0.00
2022-12-11T04:41:24.312Z,0.00
2022-12-11T04:42:24.317Z,0.00
2022-12-11T04:43:24.323Z,0.00
2022-12-11T04:44:24.330Z,0.00
2022-12-11T04:45:24.333Z,0.00
2022-12-11T04:46:24.405Z,0.00
2022-12-11T04:47:24.345Z,0.00
2022-12-11T04:48:24.350Z,0.00
2022-12-11T04:49:24.357Z,0.00
2022-12-11T04:50:24.361Z,0.00
2022-12-11T04:51:24.366Z,0.00
2022-12-11T04:52:24.373Z,0.00
2022-12-11T04:53:24.377Z,0.00
2022-12-11T04:54:24.383Z,0.00
2022-12-11T04:55:24.389Z,0.00
2022-12-11T04:56:24.392Z,0.00
2022-12-11T04:57:24.403Z,0.00
2022-12-11T04:58:24.406Z,0.00
2022-12-11T04:59:24.414Z,0.00
2022-12-11T05:00:24.416Z,0.00
2022-12-11T05:01:24.452Z,0.00
2022-12-11T05:02:24.476Z,0.00
2022-12-11T05:03:24.434Z,0.00
2022-12-11T05:04:24.439Z,0.00
2022-12-11T05:05:24.457Z,0.00
2022-12-11T05:06:24.456Z,0.00
2022-12-11T05:07:24.458Z,0.00
2022-12-11T05:08:24.538Z,0.00
2022-12-11T05:09:24.466Z,0.00
2022-12-11T05:10:24.473Z,0.00
2022-12-11T05:11:24.478Z,0.00
2022-12-11T05:12:24.483Z,0.00
2022-12-11T05:13:24.490Z,0.00
2022-12-11T05:14:24.497Z,0.00
2022-12-11T05:15:24.502Z,0.00
2022-12-11T05:16:24.548Z,0.00
2022-12-11T05:17:24.512Z,0.00
2022-12-11T05:18:24.517Z,0.00
2022-12-11T05:19:24.522Z,0.00
2022-12-11T05:20:24.530Z,0.00
2022-12-11T05:21:24.533Z,0.00
2022-12-11T05:22:24.540Z,0.00
2022-12-11T05:23:24.550Z,0.00
2022-12-11T05:24:24.549Z,0.00
2022-12-11T05:25:24.557Z,0.00
2022-12-11T05:26:24.562Z,0.00
2022-12-11T05:27:24.567Z,0.00
2022-12-11T05:28:24.571Z,0.00
2022-12-11T05:29:24.577Z,0.00
2022-12-11T05:30:24.587Z,0.00
2022-12-11T05:31:24.661Z,0.00
2022-12-11T05:32:24.594Z,0.00
2022-12-11T05:33:24.600Z,0.00
2022-12-11T05:34:24.604Z,0.00
2022-12-11T05:35:24.613Z,0.00
2022-12-11T05:36:24.617Z,0.00
2022-12-11T05:37:24.624Z,0.00
2022-12-11T05:38:24.629Z,0.00
2022-12-11T05:39:24.633Z,0.00
2022-12-11T05:40:24.638Z,0.00
2022-12-11T05:41:24.644Z,0.00
2022-12-11T05:42:28.806Z,0.00
2022-12-11T05:43:24.655Z,0.00
2022-12-11T05:44:24.665Z,0.00
2022-12-11T05:45:24.666Z,0.00
2022-12-11T05:46:24.700Z,0.00
2022-12-11T05:47:24.680Z,0.00
2022-12-11T05:48:24.681Z,0.00
2022-12-11T05:49:30.501Z,0.00
2022-12-11T05:50:24.695Z,0.00
2022-12-11T05:51:24.699Z,0.00
2022-12-11T05:52:24.704Z,0.00
2022-12-11T05:53:24.711Z,0.00
2022-12-11T05:54:24.716Z,0.00
2022-12-11T05:55:24.722Z,0.00
2022-12-11T05:56:24.726Z,0.00
2022-12-11T05:57:24.735Z,0.00
2022-12-11T05:58:24.741Z,0.00
2022-12-11T05:59:24.743Z,0.00
2022-12-11T06:00:24.747Z,0.00
2022-12-11T06:01:24.754Z,0.00
2022-12-11T06:02:24.850Z,0.00
2022-12-11T06:03:24.767Z,0.00
2022-12-11T06:04:24.770Z,0.00
2022-12-11T06:05:24.781Z,0.00
2022-12-11T06:06:24.783Z,0.00
2022-12-11T06:07:24.788Z,0.00
2022-12-11T06:08:24.815Z,0.00
2022-12-11T06:09:24.797Z,0.00
2022-12-11T06:10:24.803Z,0.00
2022-12-11T06:11:24.812Z,0.00
2022-12-11T06:12:24.813Z,0.00
2022-12-11T06:13:24.819Z,0.00
2022-12-11T06:14:24.825Z,0.00
2022-12-11T06:15:24.827Z,0.00
2022-12-11T06:16:24.899Z,0.00
2022-12-11T06:17:24.840Z,0.00
2022-12-11T06:18:24.848Z,0.00
2022-12-11T06:19:24.854Z,0.00
2022-12-11T06:20:24.854Z,0.00
2022-12-11T06:21:24.861Z,0.00
2022-12-11T06:22:24.870Z,0.00
2022-12-11T06:23:24.873Z,0.00
2022-12-11T06:24:24.878Z,0.00
2022-12-11T06:25:24.883Z,0.00
2022-12-11T06:26:24.887Z,0.00
2022-12-11T06:27:24.893Z,0.00
2022-12-11T06:28:24.900Z,0.00
2022-12-11T06:29:24.912Z,0.00
2022-12-11T06:30:38.603Z,0.00
2022-12-11T06:31:24.998Z,0.00
2022-12-11T06:32:24.927Z,0.00
2022-12-11T06:33:24.926Z,0.00
2022-12-11T06:34:24.932Z,4.00
2022-12-11T06:35:24.939Z,4.00
2022-12-11T06:36:24.941Z,4.00
2022-12-11T06:37:24.948Z,0.00
2022-12-11T06:38:24.953Z,4.00
2022-12-11T06:39:24.969Z,4.00
2022-12-11T06:40:24.964Z,4.00
2022-12-11T06:41:24.969Z,8.00
2022-12-11T06:42:24.973Z,8.00
2022-12-11T06:43:24.978Z,8.00
2022-12-11T06:44:24.985Z,12.00
2022-12-11T06:45:25.029Z,16.00
2022-12-11T06:46:25.016Z,12.00
2022-12-11T06:47:25.000Z,16.00
2022-12-11T06:48:25.003Z,16.00
2022-12-11T06:49:25.009Z,24.00
2022-12-11T06:50:25.015Z,24.00
2022-12-11T06:51:25.023Z,28.00
2022-12-11T06:52:25.025Z,32.00
2022-12-11T06:53:25.031Z,36.00
2022-12-11T06:54:25.035Z,40.00
2022-12-11T06:55:25.079Z,44.00
2022-12-11T06:56:25.053Z,48.00
2022-12-11T06:57:25.051Z,48.00
2022-12-11T06:58:25.056Z,52.00
2022-12-11T06:59:25.063Z,56.00
2022-12-11T07:00:25.066Z,64.00
2022-12-11T07:01:25.170Z,68.00
2022-12-11T07:02:25.104Z,72.00
2022-12-11T07:03:25.083Z,88.00
2022-12-11T07:04:25.099Z,88.00
2022-12-11T07:05:25.092Z,88.00
2022-12-11T07:06:25.100Z,92.00
2022-12-11T07:07:25.103Z,96.00
2022-12-11T07:08:25.149Z,100.00
2022-12-11T07:09:25.112Z,112.00
2022-12-11T07:10:25.121Z,120.00
2022-12-11T07:11:25.126Z,132.00
2022-12-11T07:12:25.127Z,148.00
2022-12-11T07:13:25.133Z,148.00
2022-12-11T07:14:25.137Z,160.00
2022-12-11T07:15:25.141Z,164.00
2022-12-11T07:16:25.177Z,176.00
2022-12-11T07:17:25.159Z,184.00
2022-12-11T07:18:25.157Z,180.00
2022-12-11T07:19:25.166Z,184.00
2022-12-11T07:20:25.168Z,208.00
2022-12-11T07:21:25.172Z,240.00
2022-12-11T07:22:25.177Z,248.00
2022-12-11T07:23:25.182Z,232.00
2022-12-11T07:24:25.187Z,240.00
2022-12-11T07:25:25.191Z,260.00
2022-12-11T07:26:25.197Z,284.00
2022-12-11T07:27:25.202Z,280.00
2022-12-11T07:28:25.208Z,276.00
2022-12-11T07:29:25.212Z,292.00
2022-12-11T07:30:25.218Z,304.00
2022-12-11T07:31:25.308Z,284.00
2022-12-11T07:32:25.384Z,272.00
2022-12-11T07:33:25.234Z,292.00
2022-12-11T07:34:25.236Z,324.00
2022-12-11T07:35:25.242Z,332.00
2022-12-11T07:36:25.245Z,340.00
2022-12-11T07:37:25.253Z,364.00
2022-12-11T07:38:25.258Z,376.00
2022-12-11T07:39:25.312Z,384.00
2022-12-11T07:40:25.272Z,400.00
2022-12-11T07:41:25.271Z,396.00
2022-12-11T07:42:25.277Z,400.00
2022-12-11T07:43:25.281Z,444.00
2022-12-11T07:44:25.289Z,472.00
2022-12-11T07:45:25.292Z,456.00
2022-12-11T07:46:25.297Z,452.00
2022-12-11T07:47:25.305Z,508.00
2022-12-11T07:48:25.306Z,584.00
2022-12-11T07:49:25.311Z,612.00
2022-12-11T07:50:25.317Z,616.00
2022-12-11T07:51:25.320Z,600.00
2022-12-11T07:52:25.326Z,612.00
2022-12-11T07:53:25.330Z,640.00
2022-12-11T07:54:25.336Z,608.00
2022-12-11T07:55:25.342Z,572.00
2022-12-11T07:56:25.346Z,584.00
2022-12-11T07:57:25.356Z,596.00
2022-12-11T07:58:25.358Z,632.00
2022-12-11T07:59:25.364Z,640.00
2022-12-11T08:00:25.364Z,596.00
2022-12-11T08:01:25.396Z,600.00
2022-12-11T08:02:25.417Z,628.00
2022-12-11T08:03:25.382Z,640.00
2022-12-11T08:04:25.395Z,640.00
2022-12-11T08:05:25.391Z,692.00
2022-12-11T08:06:25.396Z,756.00
2022-12-11T08:07:25.402Z,820.00
2022-12-11T08:08:25.437Z,876.00
2022-12-11T08:09:25.412Z,912.00
2022-12-11T08:10:25.457Z,900.00
2022-12-11T08:11:25.426Z,876.00
2022-12-11T08:12:25.428Z,880.00
2022-12-11T08:13:25.434Z,908.00
2022-12-11T08:14:25.439Z,972.00
2022-12-11T08:15:25.442Z,1040.00
2022-12-11T08:16:25.486Z,1068.00
2022-12-11T08:17:30.091Z,1108.00
2022-12-11T08:18:25.460Z,1116.00
2022-12-11T08:19:25.462Z,1092.00
2022-12-11T08:20:25.467Z,1116.00
2022-12-11T08:21:25.471Z,1180.00
2022-12-11T08:22:25.480Z,1288.00
2022-12-11T08:23:25.483Z,1388.00
2022-12-11T08:24:25.493Z,1428.00
2022-12-11T08:25:25.490Z,1472.00
2022-12-11T08:26:25.500Z,1584.00
2022-12-11T08:27:25.502Z,1760.00
2022-12-11T08:28:27.235Z,2012.00
2022-12-11T08:29:25.511Z,2064.00
2022-12-11T08:30:25.517Z,1908.00
2022-12-11T08:31:25.521Z,1668.00
2022-12-11T08:32:25.537Z,1704.00
2022-12-11T08:33:25.531Z,2120.00
2022-12-11T08:34:25.539Z,2356.00
2022-12-11T08:35:25.543Z,2548.00
2022-12-11T08:36:25.552Z,2676.00
2022-12-11T08:37:25.553Z,2592.00
2022-12-11T08:38:25.810Z,2440.00
2022-12-11T08:39:25.566Z,2292.00
2022-12-11T08:40:25.568Z,2256.00
2022-12-11T08:41:25.573Z,2412.00
2022-12-11T08:42:25.578Z,2624.00
2022-12-11T08:43:25.587Z,2768.00
2022-12-11T08:44:25.591Z,2836.00
2022-12-11T08:45:25.596Z,2916.00
2022-12-11T08:46:25.683Z,2980.00
2022-12-11T08:47:25.613Z,3048.00
2022-12-11T08:48:25.613Z,3160.00
2022-12-11T08:49:27.589Z,3096.00
2022-12-11T08:50:25.624Z,3008.00
2022-12-11T08:51:25.629Z,3004.00
2022-12-11T08:52:25.636Z,3060.00
2022-12-11T08:53:25.654Z,3016.00
2022-12-11T08:54:25.642Z,3084.00
2022-12-11T08:55:25.653Z,3424.00
2022-12-11T08:56:25.657Z,3712.00
2022-12-11T08:57:25.661Z,3820.00
2022-12-11T08:58:25.667Z,3868.00
2022-12-11T08:59:25.688Z,3780.00
2022-12-11T09:00:25.677Z,3592.00
2022-12-11T09:01:25.761Z,3448.00
2022-12-11T09:02:25.714Z,3548.00
2022-12-11T09:03:25.695Z,3744.00
2022-12-11T09:04:25.700Z,3764.00
2022-12-11T09:05:25.706Z,3704.00
2022-12-11T09:06:25.714Z,3528.00
2022-12-11T09:07:25.718Z,3236.00
2022-12-11T09:08:25.843Z,3036.00
2022-12-11T09:09:25.729Z,2952.00
2022-12-11T09:10:25.737Z,2936.00
2022-12-11T09:11:25.759Z,2928.00
2022-12-11T09:12:25.746Z,2928.00
2022-12-11T09:13:25.752Z,2956.00
2022-12-11T09:14:25.757Z,3112.00
2022-12-11T09:15:25.766Z,3328.00
2022-12-11T09:16:25.769Z,3316.00
2022-12-11T09:17:25.772Z,3204.00
2022-12-11T09:18:25.780Z,3192.00
2022-12-11T09:19:30.655Z,3408.00
2022-12-11T09:20:25.793Z,3620.00
2022-12-11T09:21:25.797Z,3676.00
2022-12-11T09:22:25.804Z,3620.00
2022-12-11T09:23:25.808Z,3576.00
2022-12-11T09:24:25.815Z,3536.00
2022-12-11T09:25:25.838Z,3460.00
2022-12-11T09:26:25.852Z,3412.00
2022-12-11T09:27:25.836Z,3372.00
2022-12-11T09:28:25.853Z,3312.00
2022-12-11T09:29:25.848Z,3256.00
2022-12-11T09:30:25.851Z,3224.00
2022-12-11T09:31:25.856Z,3212.00
2022-12-11T09:32:25.863Z,3252.00
2022-12-11T09:33:25.868Z,3348.00
2022-12-11T09:34:29.126Z,3444.00
2022-12-11T09:35:25.880Z,3468.00
2022-12-11T09:36:25.895Z,3388.00
2022-12-11T09:37:25.902Z,3260.00
2022-12-11T09:38:25.905Z,3220.00
2022-12-11T09:39:25.901Z,3416.00
2022-12-11T09:40:25.905Z,3712.00
2022-12-11T09:41:25.917Z,3856.00
2022-12-11T09:42:25.916Z,4036.00
2022-12-11T09:43:25.924Z,3864.00
2022-12-11T09:44:25.928Z,3452.00
2022-12-11T09:45:25.936Z,3152.00
2022-12-11T09:46:27.644Z,3004.00
2022-12-11T09:47:25.942Z,2916.00
2022-12-11T09:48:25.949Z,2972.00
2022-12-11T09:49:25.958Z,3212.00
2022-12-11T09:50:25.965Z,3524.00
2022-12-11T09:51:25.973Z,3816.00
2022-12-11T09:52:25.974Z,3924.00
2022-12-11T09:53:28.695Z,3768.00
2022-12-11T09:54:25.983Z,3560.00
2022-12-11T09:55:25.988Z,3456.00
2022-12-11T09:56:25.993Z,3416.00
2022-12-11T09:57:25.999Z,3348.00
2022-12-11T09:58:26.009Z,3304.00
2022-12-11T09:59:26.019Z,3224.00
2022-12-11T10:00:26.016Z,3208.00
2022-12-11T10:01:26.055Z,3228.00
2022-12-11T10:02:26.062Z,3204.00
2022-12-11T10:03:26.036Z,3208.00
2022-12-11T10:04:26.042Z,3288.00
2022-12-11T10:05:26.045Z,3436.00
2022-12-11T10:06:26.055Z,3672.00
2022-12-11T10:07:26.060Z,3900.00
2022-12-11T10:08:26.088Z,4016.00
2022-12-11T10:09:26.073Z,3900.00
2022-12-11T10:10:26.074Z,3696.00
2022-12-11T10:11:26.086Z,3604.00
2022-12-11T10:12:26.085Z,3688.00
2022-12-11T10:13:26.096Z,3832.00
2022-12-11T10:14:26.112Z,3756.00
2022-12-11T10:15:26.110Z,3644.00
2022-12-11T10:16:26.108Z,3540.00
2022-12-11T10:17:26.122Z,3404.00
2022-12-11T10:18:26.123Z,3300.00
2022-12-11T10:19:26.129Z,3300.00
2022-12-11T10:20:26.132Z,3456.00
2022-12-11T10:21:26.138Z,3668.00
2022-12-11T10:22:26.145Z,3860.00
2022-12-11T10:23:26.153Z,3920.00
2022-12-11T10:24:59.394Z,4068.00
2022-12-11T10:25:26.428Z,4212.00
2022-12-11T10:26:26.172Z,4396.00
2022-12-11T10:27:26.173Z,4524.00
2022-12-11T10:28:26.183Z,4552.00
2022-12-11T10:29:26.186Z,4508.00
2022-12-11T10:30:28.369Z,4516.00
2022-12-11T10:31:26.218Z,4520.00
2022-12-11T10:32:26.203Z,4452.00
2022-12-11T10:33:26.214Z,4420.00
2022-12-11T10:34:26.216Z,4428.00
2022-12-11T10:35:26.224Z,4516.00
2022-12-11T10:36:26.226Z,4684.00
2022-12-11T10:37:26.232Z,4864.00
2022-12-11T10:38:26.239Z,4956.00
2022-12-11T10:39:26.244Z,4864.00
2022-12-11T10:40:26.247Z,4672.00
2022-12-11T10:41:26.261Z,4408.00
2022-12-11T10:42:26.262Z,4096.00
2022-12-11T10:43:26.268Z,3704.00
2022-12-11T10:44:26.274Z,3352.00
2022-12-11T10:45:26.280Z,3100.00
2022-12-11T10:46:26.376Z,3052.00
2022-12-11T10:47:26.290Z,3092.00
2022-12-11T10:48:26.296Z,3148.00
2022-12-11T10:49:26.307Z,3228.00
2022-12-11T10:50:26.309Z,3344.00
2022-12-11T10:51:26.315Z,3584.00
2022-12-11T10:52:26.320Z,3876.00
2022-12-11T10:53:26.328Z,4120.00
2022-12-11T10:54:26.333Z,4228.00
2022-12-11T10:55:26.339Z,4292.00
2022-12-11T10:56:26.341Z,4352.00
2022-12-11T10:57:26.347Z,4332.00
2022-12-11T10:58:26.354Z,4220.00
2022-12-11T10:59:26.361Z,4096.00
2022-12-11T11:00:26.366Z,3968.00
2022-12-11T11:01:26.411Z,3988.00
2022-12-11T11:02:26.440Z,4076.00
2022-12-11T11:03:26.385Z,4256.00
2022-12-11T11:04:26.395Z,4448.00
2022-12-11T11:05:26.399Z,4608.00
2022-12-11T11:06:26.408Z,4708.00
2022-12-11T11:07:26.415Z,4816.00
2022-12-11T11:08:26.462Z,4916.00
2022-12-11T11:09:26.421Z,4944.00
2022-12-11T11:10:26.427Z,4840.00
2022-12-11T11:11:26.432Z,4700.00
2022-12-11T11:12:26.443Z,4652.00
2022-12-11T11:13:26.445Z,4700.00
2022-12-11T11:14:26.449Z,4824.00
2022-12-11T11:15:26.457Z,4932.00
2022-12-11T11:16:26.510Z,4996.00
2022-12-11T11:17:28.502Z,5080.00
2022-12-11T11:18:26.472Z,5204.00
2022-12-11T11:19:26.477Z,5404.00
2022-12-11T11:20:26.490Z,5640.00
2022-12-11T11:21:26.488Z,5836.00
2022-12-11T11:22:26.495Z,5964.00
2022-12-11T11:23:26.503Z,6052.00
2022-12-11T11:24:26.511Z,6140.00
2022-12-11T11:25:26.513Z,6212.00
2022-12-11T11:26:38.397Z,6244.00
2022-12-11T11:27:26.527Z,6280.00
2022-12-11T11:28:26.531Z,6220.00
2022-12-11T11:29:26.539Z,6056.00
2022-12-11T11:30:26.544Z,5972.00
2022-12-11T11:31:26.613Z,5756.00
2022-12-11T11:32:26.556Z,5544.00
2022-12-11T11:33:26.564Z,5224.00
2022-12-11T11:34:26.572Z,4876.00
2022-12-11T11:35:26.592Z,4736.00
2022-12-11T11:36:26.584Z,4628.00
2022-12-11T11:37:26.589Z,4576.00
2022-12-11T11:38:26.594Z,4512.00
2022-12-11T11:39:26.604Z,4348.00
2022-12-11T11:40:26.612Z,4140.00
2022-12-11T11:41:26.614Z,4064.00
2022-12-11T11:42:26.620Z,4036.00
2022-12-11T11:43:26.628Z,3980.00
2022-12-11T11:44:26.633Z,3880.00
2022-12-11T11:45:26.641Z,3756.00
2022-12-11T11:46:26.704Z,3688.00
2022-12-11T11:47:26.654Z,3596.00
2022-12-11T11:48:26.660Z,3544.00
2022-12-11T11:49:26.664Z,3496.00
2022-12-11T11:50:26.676Z,3540.00
2022-12-11T11:51:26.680Z,3648.00
2022-12-11T11:52:26.685Z,3656.00
2022-12-11T11:53:26.693Z,3668.00
2022-12-11T11:54:26.701Z,3704.00
2022-12-11T11:55:26.707Z,3752.00
2022-12-11T11:56:26.711Z,3760.00
2022-12-11T11:57:26.718Z,3604.00
2022-12-11T11:58:26.725Z,3352.00
2022-12-11T11:59:26.741Z,3128.00
2022-12-11T12:00:30.325Z,2940.00
2022-12-11T12:01:26.745Z,2808.00
2022-12-11T12:02:26.805Z,2748.00
2022-12-11T12:03:26.761Z,2724.00
2022-12-11T12:04:26.763Z,2792.00
2022-12-11T12:05:26.771Z,2952.00
2022-12-11T12:06:26.778Z,3160.00
2022-12-11T12:07:26.784Z,3364.00
2022-12-11T12:08:26.870Z,3532.00
2022-12-11T12:09:26.834Z,3632.00
2022-12-11T12:10:26.801Z,3732.00
2022-12-11T12:11:26.809Z,3780.00
2022-12-11T12:12:31.012Z,3752.00
2022-12-11T12:13:48.612Z,3728.00
2022-12-11T12:14:51.544Z,3760.00
2022-12-11T12:15:26.837Z,3828.00
2022-12-11T12:16:52.063Z,3892.00
2022-12-11T12:17:26.877Z,3960.00
2022-12-11T12:18:26.853Z,3984.00
2022-12-11T12:19:26.860Z,4052.00
2022-12-11T12:20:26.868Z,4080.00
2022-12-11T12:21:26.872Z,4052.00
2022-12-11T12:22:26.878Z,3968.00
2022-12-11T12:23:28.004Z,3848.00
2022-12-11T12:24:26.897Z,3800.00
2022-12-11T12:25:26.899Z,3820.00
2022-12-11T12:26:26.909Z,3876.00
2022-12-11T12:27:51.613Z,4016.00
2022-12-11T12:28:26.917Z,4144.00
2022-12-11T12:29:26.928Z,4216.00
2022-12-11T12:30:26.930Z,4172.00
2022-12-11T12:31:26.971Z,4044.00
2022-12-11T12:32:26.942Z,4024.00
2022-12-11T12:33:26.950Z,4080.00
2022-12-11T12:34:26.956Z,4052.00
2022-12-11T12:35:26.961Z,4088.00
2022-12-11T12:36:26.970Z,4128.00
2022-12-11T12:37:26.975Z,4220.00
2022-12-11T12:38:26.987Z,4344.00
2022-12-11T12:39:26.988Z,4376.00
2022-12-11T12:40:26.992Z,4340.00
2022-12-11T12:41:26.999Z,4304.00
2022-12-11T12:42:27.006Z,4280.00
2022-12-11T12:43:27.013Z,4280.00
2022-12-11T12:44:27.018Z,4264.00
2022-12-11T12:45:27.088Z,4164.00
2022-12-11T12:46:27.034Z,4072.00